sensor_id;sensor_type;location;lat;lon;timestamp;temperature;humidity
21184;DHT22;18176;49.502;11.754;2024-02-16T00:03:23;4.60;99.90
21184;DHT22;18176;49.502;11.754;2024-02-16T00:07:47;4.50;99.90
21184;DHT22;18176;49.502;11.754;2024-02-16T00:12:08;4.50;99.90
21184;DHT22;18176;49.502;11.754;2024-02-16T00:16:28;4.40;99.90
21184;DHT22;18176;49.502;11.754;2024-02-16T00:20:49;4.40;99.90
21184;DHT22;18176;49.502;11.754;2024-02-16T00:25:13;4.30;99.90
21184;DHT22;18176;49.502;11.754;2024-02-16T00:29:35;4.30;99.90
21184;DHT22;18176;49.502;11.754;2024-02-16T00:33:55;4.20;99.90
21184;DHT22;18176;49.502;11.754;2024-02-16T00:38:16;4.10;99.90
21184;DHT22;18176;49.502;11.754;2024-02-16T00:42:39;4.10;99.90
21184;DHT22;18176;49.502;11.754;2024-02-16T00:47:00;4.10;99.90
21184;DHT22;18176;49.502;11.754;2024-02-16T00:51:23;4.00;99.90
21184;DHT22;18176;49.502;11.754;2024-02-16T00:55:44;4.00;99.90
21184;DHT22;18176;49.502;11.754;2024-02-16T01:00:08;4.10;99.90
21184;DHT22;18176;49.502;11.754;2024-02-16T01:04:30;4.10;99.90
21184;DHT22;18176;49.502;11.754;2024-02-16T01:08:50;4.10;99.90
21184;DHT22;18176;49.502;11.754;2024-02-16T01:13:11;4.20;99.90
21184;DHT22;18176;49.502;11.754;2024-02-16T01:17:34;4.30;99.90
21184;DHT22;18176;49.502;11.754;2024-02-16T01:21:54;4.40;99.90
21184;DHT22;18176;49.502;11.754;2024-02-16T01:26:16;4.80;99.90
21184;DHT22;18176;49.502;11.754;2024-02-16T01:30:37;5.00;99.90
21184;DHT22;18176;49.502;11.754;2024-02-16T01:35:00;5.10;99.90
21184;DHT22;18176;49.502;11.754;2024-02-16T01:39:21;5.00;99.90
21184;DHT22;18176;49.502;11.754;2024-02-16T01:43:41;4.90;99.90
21184;DHT22;18176;49.502;11.754;2024-02-16T01:48:03;4.80;99.90
21184;DHT22;18176;49.502;11.754;2024-02-16T01:52:27;4.80;99.90
21184;DHT22;18176;49.502;11.754;2024-02-16T01:56:48;4.80;99.90
21184;DHT22;18176;49.502;11.754;2024-02-16T02:01:09;4.80;99.90
21184;DHT22;18176;49.502;11.754;2024-02-16T02:05:31;4.80;99.90
21184;DHT22;18176;49.502;11.754;2024-02-16T02:09:55;4.90;99.90
21184;DHT22;18176;49.502;11.754;2024-02-16T02:14:16;4.90;99.90
21184;DHT22;18176;49.502;11.754;2024-02-16T02:18:37;4.90;99.90
21184;DHT22;18176;49.502;11.754;2024-02-16T02:23:01;5.00;99.90
21184;DHT22;18176;49.502;11.754;2024-02-16T02:27:21;4.90;99.90
21184;DHT22;18176;49.502;11.754;2024-02-16T02:31:42;4.90;99.90
21184;DHT22;18176;49.502;11.754;2024-02-16T02:36:03;5.00;99.90
21184;DHT22;18176;49.502;11.754;2024-02-16T02:40:27;5.00;99.90
21184;DHT22;18176;49.502;11.754;2024-02-16T02:44:48;5.00;99.90
21184;DHT22;18176;49.502;11.754;2024-02-16T02:49:09;5.10;99.90
21184;DHT22;18176;49.502;11.754;2024-02-16T02:53:30;5.20;99.90
21184;DHT22;18176;49.502;11.754;2024-02-16T02:57:53;5.10;99.90
21184;DHT22;18176;49.502;11.754;2024-02-16T03:02:15;5.20;99.90
21184;DHT22;18176;49.502;11.754;2024-02-16T03:06:35;5.20;99.90
21184;DHT22;18176;49.502;11.754;2024-02-16T03:10:56;5.10;99.90
21184;DHT22;18176;49.502;11.754;2024-02-16T03:15:21;5.10;99.90
21184;DHT22;18176;49.502;11.754;2024-02-16T03:19:42;5.00;99.90
21184;DHT22;18176;49.502;11.754;2024-02-16T03:24:03;5.00;99.90
21184;DHT22;18176;49.502;11.754;2024-02-16T03:28:24;5.00;99.90
21184;DHT22;18176;49.502;11.754;2024-02-16T03:32:50;5.00;99.90
21184;DHT22;18176;49.502;11.754;2024-02-16T03:37:11;5.00;99.90
21184;DHT22;18176;49.502;11.754;2024-02-16T03:41:33;5.00;99.90
21184;DHT22;18176;49.502;11.754;2024-02-16T03:45:53;5.00;99.90
21184;DHT22;18176;49.502;11.754;2024-02-16T03:50:16;4.90;99.90
21184;DHT22;18176;49.502;11.754;2024-02-16T03:54:38;5.00;99.90
21184;DHT22;18176;49.502;11.754;2024-02-16T03:58:59;5.00;99.90
21184;DHT22;18176;49.502;11.754;2024-02-16T04:03:24;4.90;99.90
21184;DHT22;18176;49.502;11.754;2024-02-16T04:07:47;4.90;99.90
21184;DHT22;18176;49.502;11.754;2024-02-16T04:12:08;4.80;99.90
21184;DHT22;18176;49.502;11.754;2024-02-16T04:16:28;4.80;99.90
21184;DHT22;18176;49.502;11.754;2024-02-16T04:20:49;4.80;99.90
21184;DHT22;18176;49.502;11.754;2024-02-16T04:25:12;4.80;99.90
21184;DHT22;18176;49.502;11.754;2024-02-16T04:29:33;4.80;99.90
21184;DHT22;18176;49.502;11.754;2024-02-16T04:33:53;4.90;99.90
21184;DHT22;18176;49.502;11.754;2024-02-16T04:38:15;4.80;99.90
21184;DHT22;18176;49.502;11.754;2024-02-16T04:42:38;4.80;99.90
21184;DHT22;18176;49.502;11.754;2024-02-16T04:47:00;4.90;99.90
21184;DHT22;18176;49.502;11.754;2024-02-16T04:51:21;4.80;99.90
21184;DHT22;18176;49.502;11.754;2024-02-16T04:55:42;4.80;99.90
21184;DHT22;18176;49.502;11.754;2024-02-16T05:00:06;4.80;99.90
21184;DHT22;18176;49.502;11.754;2024-02-16T05:04:29;4.80;99.90
21184;DHT22;18176;49.502;11.754;2024-02-16T05:08:49;4.70;99.90
21184;DHT22;18176;49.502;11.754;2024-02-16T05:13:11;4.70;99.90
21184;DHT22;18176;49.502;11.754;2024-02-16T05:17:34;4.60;99.90
21184;DHT22;18176;49.502;11.754;2024-02-16T05:21:55;4.60;99.90
21184;DHT22;18176;49.502;11.754;2024-02-16T05:26:15;4.50;99.90
21184;DHT22;18176;49.502;11.754;2024-02-16T05:30:36;4.60;99.90
21184;DHT22;18176;49.502;11.754;2024-02-16T05:34:59;4.70;99.90
21184;DHT22;18176;49.502;11.754;2024-02-16T05:39:22;4.60;99.90
21184;DHT22;18176;49.502;11.754;2024-02-16T05:43:49;4.70;99.90
21184;DHT22;18176;49.502;11.754;2024-02-16T05:48:09;4.80;99.90
21184;DHT22;18176;49.502;11.754;2024-02-16T05:52:33;4.80;99.90
21184;DHT22;18176;49.502;11.754;2024-02-16T05:56:54;4.90;99.90
21184;DHT22;18176;49.502;11.754;2024-02-16T06:01:14;4.90;99.90
21184;DHT22;18176;49.502;11.754;2024-02-16T06:05:35;5.00;99.90
21184;DHT22;18176;49.502;11.754;2024-02-16T06:09:58;5.00;99.90
21184;DHT22;18176;49.502;11.754;2024-02-16T06:14:23;5.00;99.90
21184;DHT22;18176;49.502;11.754;2024-02-16T06:18:43;5.00;99.90
21184;DHT22;18176;49.502;11.754;2024-02-16T06:23:04;5.10;99.90
21184;DHT22;18176;49.502;11.754;2024-02-16T06:27:29;5.20;99.90
21184;DHT22;18176;49.502;11.754;2024-02-16T06:31:50;5.30;99.90
21184;DHT22;18176;49.502;11.754;2024-02-16T06:36:11;5.40;99.90
21184;DHT22;18176;49.502;11.754;2024-02-16T06:40:31;5.70;99.90
21184;DHT22;18176;49.502;11.754;2024-02-16T06:44:55;5.80;99.90
21184;DHT22;18176;49.502;11.754;2024-02-16T06:49:15;5.90;99.90
21184;DHT22;18176;49.502;11.754;2024-02-16T06:53:36;6.10;99.90
21184;DHT22;18176;49.502;11.754;2024-02-16T06:57:57;6.20;99.90
21184;DHT22;18176;49.502;11.754;2024-02-16T07:02:20;6.20;99.90
21184;DHT22;18176;49.502;11.754;2024-02-16T07:06:43;6.20;99.90
21184;DHT22;18176;49.502;11.754;2024-02-16T07:11:04;6.30;99.90
21184;DHT22;18176;49.502;11.754;2024-02-16T07:15:25;6.20;99.90
21184;DHT22;18176;49.502;11.754;2024-02-16T07:19:48;6.30;99.90
21184;DHT22;18176;49.502;11.754;2024-02-16T07:24:09;6.40;99.90
21184;DHT22;18176;49.502;11.754;2024-02-16T07:28:30;6.50;99.90
21184;DHT22;18176;49.502;11.754;2024-02-16T07:32:51;6.70;99.90
21184;DHT22;18176;49.502;11.754;2024-02-16T07:37:15;6.80;99.90
21184;DHT22;18176;49.502;11.754;2024-02-16T07:41:36;6.80;99.90
21184;DHT22;18176;49.502;11.754;2024-02-16T07:45:56;6.90;99.90
21184;DHT22;18176;49.502;11.754;2024-02-16T07:50:18;7.00;99.90
21184;DHT22;18176;49.502;11.754;2024-02-16T07:54:41;7.00;99.90
21184;DHT22;18176;49.502;11.754;2024-02-16T07:59:02;7.10;99.90
21184;DHT22;18176;49.502;11.754;2024-02-16T08:03:23;7.20;99.90
21184;DHT22;18176;49.502;11.754;2024-02-16T08:07:43;7.30;99.90
21184;DHT22;18176;49.502;11.754;2024-02-16T08:12:07;7.50;99.90
21184;DHT22;18176;49.502;11.754;2024-02-16T08:16:28;7.60;99.90
21184;DHT22;18176;49.502;11.754;2024-02-16T08:20:49;7.70;99.90
21184;DHT22;18176;49.502;11.754;2024-02-16T08:25:10;7.80;99.90
21184;DHT22;18176;49.502;11.754;2024-02-16T08:29:33;7.90;99.90
21184;DHT22;18176;49.502;11.754;2024-02-16T08:33:53;8.00;99.90
21184;DHT22;18176;49.502;11.754;2024-02-16T08:38:14;8.30;99.90
21184;DHT22;18176;49.502;11.754;2024-02-16T08:42:35;8.40;99.90
21184;DHT22;18176;49.502;11.754;2024-02-16T08:46:58;8.50;99.90
21184;DHT22;18176;49.502;11.754;2024-02-16T08:51:19;8.50;99.90
21184;DHT22;18176;49.502;11.754;2024-02-16T08:55:40;8.60;99.90
21184;DHT22;18176;49.502;11.754;2024-02-16T09:00:00;8.80;99.90
21184;DHT22;18176;49.502;11.754;2024-02-16T09:04:24;8.70;99.90
21184;DHT22;18176;49.502;11.754;2024-02-16T09:08:45;8.90;99.90
21184;DHT22;18176;49.502;11.754;2024-02-16T09:13:05;9.30;99.90
21184;DHT22;18176;49.502;11.754;2024-02-16T09:17:26;9.80;99.90
21184;DHT22;18176;49.502;11.754;2024-02-16T09:21:50;10.30;99.90
21184;DHT22;18176;49.502;11.754;2024-02-16T09:26:15;10.80;99.90
21184;DHT22;18176;49.502;11.754;2024-02-16T09:30:36;11.50;99.90
21184;DHT22;18176;49.502;11.754;2024-02-16T09:34:57;11.50;99.90
21184;DHT22;18176;49.502;11.754;2024-02-16T09:39:20;11.20;99.90
21184;DHT22;18176;49.502;11.754;2024-02-16T09:43:42;11.10;99.90
21184;DHT22;18176;49.502;11.754;2024-02-16T09:48:07;11.20;99.90
21184;DHT22;18176;49.502;11.754;2024-02-16T09:52:30;11.30;99.90
21184;DHT22;18176;49.502;11.754;2024-02-16T09:56:56;11.90;99.90
21184;DHT22;18176;49.502;11.754;2024-02-16T10:01:18;12.30;99.90
21184;DHT22;18176;49.502;11.754;2024-02-16T10:05:40;12.00;99.90
21184;DHT22;18176;49.502;11.754;2024-02-16T10:10:01;12.10;99.90
21184;DHT22;18176;49.502;11.754;2024-02-16T10:14:25;12.00;99.90
21184;DHT22;18176;49.502;11.754;2024-02-16T10:18:49;11.80;99.90
21184;DHT22;18176;49.502;11.754;2024-02-16T10:23:12;11.70;99.90
21184;DHT22;18176;49.502;11.754;2024-02-16T10:27:34;11.90;99.90
21184;DHT22;18176;49.502;11.754;2024-02-16T10:31:57;12.20;99.90
21184;DHT22;18176;49.502;11.754;2024-02-16T10:36:18;12.90;99.90
21184;DHT22;18176;49.502;11.754;2024-02-16T10:40:40;13.90;99.90
21184;DHT22;18176;49.502;11.754;2024-02-16T10:45:03;14.50;99.90
21184;DHT22;18176;49.502;11.754;2024-02-16T10:49:28;15.40;99.90
21184;DHT22;18176;49.502;11.754;2024-02-16T10:53:51;15.90;99.90
21184;DHT22;18176;49.502;11.754;2024-02-16T10:58:17;16.10;99.90
21184;DHT22;18176;49.502;11.754;2024-02-16T11:02:54;16.60;99.90
21184;DHT22;18176;49.502;11.754;2024-02-16T11:07:20;17.00;99.90
21184;DHT22;18176;49.502;11.754;2024-02-16T11:16:03;16.10;99.90
21184;DHT22;18176;49.502;11.754;2024-02-16T11:20:28;16.20;99.90
21184;DHT22;18176;49.502;11.754;2024-02-16T11:24:53;16.00;99.90
21184;DHT22;18176;49.502;11.754;2024-02-16T11:29:18;15.60;99.90
21184;DHT22;18176;49.502;11.754;2024-02-16T11:33:43;15.30;99.90
21184;DHT22;18176;49.502;11.754;2024-02-16T11:38:05;15.10;99.90
21184;DHT22;18176;49.502;11.754;2024-02-16T11:42:29;14.90;99.90
21184;DHT22;18176;49.502;11.754;2024-02-16T11:46:53;14.80;99.90
21184;DHT22;18176;49.502;11.754;2024-02-16T11:51:15;14.80;99.90
21184;DHT22;18176;49.502;11.754;2024-02-16T11:55:37;14.60;99.90
21184;DHT22;18176;49.502;11.754;2024-02-16T12:00:02;14.70;99.90
21184;DHT22;18176;49.502;11.754;2024-02-16T12:04:30;14.50;99.90
21184;DHT22;18176;49.502;11.754;2024-02-16T12:09:00;14.40;99.90
21184;DHT22;18176;49.502;11.754;2024-02-16T12:13:27;14.10;99.90
21184;DHT22;18176;49.502;11.754;2024-02-16T12:17:58;14.00;99.90
21184;DHT22;18176;49.502;11.754;2024-02-16T12:22:20;14.10;99.90
21184;DHT22;18176;49.502;11.754;2024-02-16T12:26:41;13.90;99.90
21184;DHT22;18176;49.502;11.754;2024-02-16T12:31:02;13.90;99.90
21184;DHT22;18176;49.502;11.754;2024-02-16T12:35:26;13.70;99.90
21184;DHT22;18176;49.502;11.754;2024-02-16T12:39:47;13.80;99.90
21184;DHT22;18176;49.502;11.754;2024-02-16T12:44:07;13.80;99.90
21184;DHT22;18176;49.502;11.754;2024-02-16T12:48:28;13.90;99.90
21184;DHT22;18176;49.502;11.754;2024-02-16T12:52:52;14.00;99.90
21184;DHT22;18176;49.502;11.754;2024-02-16T12:57:20;14.00;99.90
21184;DHT22;18176;49.502;11.754;2024-02-16T13:01:41;13.80;99.90
21184;DHT22;18176;49.502;11.754;2024-02-16T13:06:04;13.70;99.90
21184;DHT22;18176;49.502;11.754;2024-02-16T13:10:28;13.60;99.90
21184;DHT22;18176;49.502;11.754;2024-02-16T13:14:49;13.70;99.90
21184;DHT22;18176;49.502;11.754;2024-02-16T13:19:10;13.60;99.90
21184;DHT22;18176;49.502;11.754;2024-02-16T13:23:30;13.70;99.90
21184;DHT22;18176;49.502;11.754;2024-02-16T13:27:54;13.60;99.90
21184;DHT22;18176;49.502;11.754;2024-02-16T13:32:14;13.70;99.90
21184;DHT22;18176;49.502;11.754;2024-02-16T13:36:35;13.80;99.90
21184;DHT22;18176;49.502;11.754;2024-02-16T13:40:56;13.60;99.90
21184;DHT22;18176;49.502;11.754;2024-02-16T13:45:20;13.50;99.90
21184;DHT22;18176;49.502;11.754;2024-02-16T13:49:43;13.50;99.90
21184;DHT22;18176;49.502;11.754;2024-02-16T13:54:04;13.40;99.90
21184;DHT22;18176;49.502;11.754;2024-02-16T13:58:25;13.30;99.90
21184;DHT22;18176;49.502;11.754;2024-02-16T14:02:49;13.30;99.90
21184;DHT22;18176;49.502;11.754;2024-02-16T14:07:10;13.30;99.90
21184;DHT22;18176;49.502;11.754;2024-02-16T14:11:31;13.40;99.90
21184;DHT22;18176;49.502;11.754;2024-02-16T14:15:51;13.40;99.90
21184;DHT22;18176;49.502;11.754;2024-02-16T14:20:15;13.50;99.90
21184;DHT22;18176;49.502;11.754;2024-02-16T14:24:36;13.40;99.90
21184;DHT22;18176;49.502;11.754;2024-02-16T14:28:56;13.40;99.90
21184;DHT22;18176;49.502;11.754;2024-02-16T14:33:17;13.40;99.90
21184;DHT22;18176;49.502;11.754;2024-02-16T14:37:52;13.40;99.90
21184;DHT22;18176;49.502;11.754;2024-02-16T14:42:13;13.30;99.90
21184;DHT22;18176;49.502;11.754;2024-02-16T14:46:34;13.10;99.90
21184;DHT22;18176;49.502;11.754;2024-02-16T14:50:54;13.00;99.90
21184;DHT22;18176;49.502;11.754;2024-02-16T14:55:18;13.00;99.90
21184;DHT22;18176;49.502;11.754;2024-02-16T14:59:38;12.90;99.90
21184;DHT22;18176;49.502;11.754;2024-02-16T15:04:00;12.90;99.90
21184;DHT22;18176;49.502;11.754;2024-02-16T15:08:21;12.90;99.90
21184;DHT22;18176;49.502;11.754;2024-02-16T15:12:44;12.80;99.90
21184;DHT22;18176;49.502;11.754;2024-02-16T15:17:05;12.80;99.90
21184;DHT22;18176;49.502;11.754;2024-02-16T15:21:26;12.70;99.90
21184;DHT22;18176;49.502;11.754;2024-02-16T15:25:47;12.60;99.90
21184;DHT22;18176;49.502;11.754;2024-02-16T15:30:11;12.50;99.90
21184;DHT22;18176;49.502;11.754;2024-02-16T15:34:32;12.50;99.90
21184;DHT22;18176;49.502;11.754;2024-02-16T15:38:52;12.40;99.90
21184;DHT22;18176;49.502;11.754;2024-02-16T15:43:13;12.30;99.90
21184;DHT22;18176;49.502;11.754;2024-02-16T15:47:36;12.20;99.90
21184;DHT22;18176;49.502;11.754;2024-02-16T15:51:57;12.00;99.90
21184;DHT22;18176;49.502;11.754;2024-02-16T15:56:18;11.90;99.90
21184;DHT22;18176;49.502;11.754;2024-02-16T16:00:39;11.90;99.90
21184;DHT22;18176;49.502;11.754;2024-02-16T16:05:03;11.70;99.90
21184;DHT22;18176;49.502;11.754;2024-02-16T16:09:24;11.70;99.90
21184;DHT22;18176;49.502;11.754;2024-02-16T16:13:45;11.60;99.90
21184;DHT22;18176;49.502;11.754;2024-02-16T16:18:05;11.60;99.90
21184;DHT22;18176;49.502;11.754;2024-02-16T16:22:29;11.50;99.90
21184;DHT22;18176;49.502;11.754;2024-02-16T16:26:49;11.40;99.90
21184;DHT22;18176;49.502;11.754;2024-02-16T16:31:10;11.40;99.90
21184;DHT22;18176;49.502;11.754;2024-02-16T16:35:31;11.30;99.90
21184;DHT22;18176;49.502;11.754;2024-02-16T16:39:55;11.30;99.90
21184;DHT22;18176;49.502;11.754;2024-02-16T16:44:15;11.30;99.90
21184;DHT22;18176;49.502;11.754;2024-02-16T16:48:36;11.20;99.90
21184;DHT22;18176;49.502;11.754;2024-02-16T16:52:57;11.10;99.90
21184;DHT22;18176;49.502;11.754;2024-02-16T16:57:20;11.00;99.90
21184;DHT22;18176;49.502;11.754;2024-02-16T17:01:42;11.00;99.90
21184;DHT22;18176;49.502;11.754;2024-02-16T17:06:03;10.90;99.90
21184;DHT22;18176;49.502;11.754;2024-02-16T17:10:24;10.90;99.90
21184;DHT22;18176;49.502;11.754;2024-02-16T17:14:48;10.90;99.90
21184;DHT22;18176;49.502;11.754;2024-02-16T17:19:08;10.90;99.90
21184;DHT22;18176;49.502;11.754;2024-02-16T17:23:29;10.90;99.90
21184;DHT22;18176;49.502;11.754;2024-02-16T17:27:50;10.80;99.90
21184;DHT22;18176;49.502;11.754;2024-02-16T17:32:14;10.80;99.90
21184;DHT22;18176;49.502;11.754;2024-02-16T17:36:34;10.80;99.90
21184;DHT22;18176;49.502;11.754;2024-02-16T17:40:55;10.80;99.90
21184;DHT22;18176;49.502;11.754;2024-02-16T17:45:16;10.80;99.90
21184;DHT22;18176;49.502;11.754;2024-02-16T17:49:41;10.70;99.90
21184;DHT22;18176;49.502;11.754;2024-02-16T17:54:02;10.70;99.90
21184;DHT22;18176;49.502;11.754;2024-02-16T17:58:23;10.70;99.90
21184;DHT22;18176;49.502;11.754;2024-02-16T18:02:44;10.70;99.90
21184;DHT22;18176;49.502;11.754;2024-02-16T18:07:08;10.70;99.90
21184;DHT22;18176;49.502;11.754;2024-02-16T18:11:30;10.70;99.90
21184;DHT22;18176;49.502;11.754;2024-02-16T18:15:51;10.60;99.90
21184;DHT22;18176;49.502;11.754;2024-02-16T18:20:12;10.50;99.90
21184;DHT22;18176;49.502;11.754;2024-02-16T18:24:37;10.30;99.90
21184;DHT22;18176;49.502;11.754;2024-02-16T18:28:59;10.20;99.90
21184;DHT22;18176;49.502;11.754;2024-02-16T18:33:19;10.10;99.90
21184;DHT22;18176;49.502;11.754;2024-02-16T18:37:41;10.00;99.90
21184;DHT22;18176;49.502;11.754;2024-02-16T18:42:05;10.00;99.90
21184;DHT22;18176;49.502;11.754;2024-02-16T18:46:27;9.90;99.90
21184;DHT22;18176;49.502;11.754;2024-02-16T18:50:49;9.90;99.90
21184;DHT22;18176;49.502;11.754;2024-02-16T18:55:09;9.90;99.90
21184;DHT22;18176;49.502;11.754;2024-02-16T18:59:33;9.90;99.90
21184;DHT22;18176;49.502;11.754;2024-02-16T19:03:54;9.80;99.90
21184;DHT22;18176;49.502;11.754;2024-02-16T19:08:15;9.80;99.90
21184;DHT22;18176;49.502;11.754;2024-02-16T19:12:36;9.80;99.90
21184;DHT22;18176;49.502;11.754;2024-02-16T19:16:59;9.80;99.90
21184;DHT22;18176;49.502;11.754;2024-02-16T19:21:20;9.80;99.90
21184;DHT22;18176;49.502;11.754;2024-02-16T19:25:42;9.80;99.90
21184;DHT22;18176;49.502;11.754;2024-02-16T19:30:03;9.80;99.90
21184;DHT22;18176;49.502;11.754;2024-02-16T19:34:27;9.70;99.90
21184;DHT22;18176;49.502;11.754;2024-02-16T19:38:48;9.70;99.90
21184;DHT22;18176;49.502;11.754;2024-02-16T19:43:09;9.70;99.90
21184;DHT22;18176;49.502;11.754;2024-02-16T19:47:31;9.70;99.90
21184;DHT22;18176;49.502;11.754;2024-02-16T19:51:54;9.70;99.90
21184;DHT22;18176;49.502;11.754;2024-02-16T19:56:15;9.70;99.90
21184;DHT22;18176;49.502;11.754;2024-02-16T20:00:36;9.70;99.90
21184;DHT22;18176;49.502;11.754;2024-02-16T20:04:57;9.70;99.90
21184;DHT22;18176;49.502;11.754;2024-02-16T20:09:20;9.60;99.90
21184;DHT22;18176;49.502;11.754;2024-02-16T20:13:41;9.70;99.90
21184;DHT22;18176;49.502;11.754;2024-02-16T20:18:04;9.70;99.90
21184;DHT22;18176;49.502;11.754;2024-02-16T20:22:25;9.70;99.90
21184;DHT22;18176;49.502;11.754;2024-02-16T20:26:48;9.80;99.90
21184;DHT22;18176;49.502;11.754;2024-02-16T20:31:12;9.80;99.90
21184;DHT22;18176;49.502;11.754;2024-02-16T20:35:32;9.80;99.90
21184;DHT22;18176;49.502;11.754;2024-02-16T20:39:54;9.80;99.90
21184;DHT22;18176;49.502;11.754;2024-02-16T20:44:17;9.80;99.90
21184;DHT22;18176;49.502;11.754;2024-02-16T20:48:38;9.80;99.90
21184;DHT22;18176;49.502;11.754;2024-02-16T20:52:59;9.80;99.90
21184;DHT22;18176;49.502;11.754;2024-02-16T20:57:20;9.70;99.90
21184;DHT22;18176;49.502;11.754;2024-02-16T21:01:43;9.70;99.90
21184;DHT22;18176;49.502;11.754;2024-02-16T21:06:04;9.70;99.90
21184;DHT22;18176;49.502;11.754;2024-02-16T21:10:26;9.70;99.90
21184;DHT22;18176;49.502;11.754;2024-02-16T21:14:47;9.70;99.90
21184;DHT22;18176;49.502;11.754;2024-02-16T21:19:10;9.60;99.90
21184;DHT22;18176;49.502;11.754;2024-02-16T21:23:31;9.60;99.90
21184;DHT22;18176;49.502;11.754;2024-02-16T21:27:52;9.60;99.90
21184;DHT22;18176;49.502;11.754;2024-02-16T21:32:13;9.60;99.90
21184;DHT22;18176;49.502;11.754;2024-02-16T21:36:36;9.60;99.90
21184;DHT22;18176;49.502;11.754;2024-02-16T21:40:57;9.50;99.90
21184;DHT22;18176;49.502;11.754;2024-02-16T21:45:21;9.60;99.90
21184;DHT22;18176;49.502;11.754;2024-02-16T21:49:42;9.60;99.90
21184;DHT22;18176;49.502;11.754;2024-02-16T21:54:07;9.80;99.90
21184;DHT22;18176;49.502;11.754;2024-02-16T21:58:28;10.20;99.90
21184;DHT22;18176;49.502;11.754;2024-02-16T22:02:50;10.20;99.90
21184;DHT22;18176;49.502;11.754;2024-02-16T22:07:11;10.30;99.90
21184;DHT22;18176;49.502;11.754;2024-02-16T22:11:36;10.30;99.90
21184;DHT22;18176;49.502;11.754;2024-02-16T22:16:04;10.50;99.90
21184;DHT22;18176;49.502;11.754;2024-02-16T22:20:25;10.60;99.90
21184;DHT22;18176;49.502;11.754;2024-02-16T22:24:45;10.70;99.90
21184;DHT22;18176;49.502;11.754;2024-02-16T22:29:09;10.70;99.90
21184;DHT22;18176;49.502;11.754;2024-02-16T22:33:30;10.80;99.90
21184;DHT22;18176;49.502;11.754;2024-02-16T22:37:51;10.80;99.90
21184;DHT22;18176;49.502;11.754;2024-02-16T22:42:12;10.90;99.90
21184;DHT22;18176;49.502;11.754;2024-02-16T22:46:37;10.80;99.90
21184;DHT22;18176;49.502;11.754;2024-02-16T22:50:57;10.80;99.90
21184;DHT22;18176;49.502;11.754;2024-02-16T22:55:18;10.70;99.90
21184;DHT22;18176;49.502;11.754;2024-02-16T22:59:39;10.70;99.90
21184;DHT22;18176;49.502;11.754;2024-02-16T23:04:02;10.80;99.90
21184;DHT22;18176;49.502;11.754;2024-02-16T23:08:26;10.80;99.90
21184;DHT22;18176;49.502;11.754;2024-02-16T23:12:48;10.80;99.90
21184;DHT22;18176;49.502;11.754;2024-02-16T23:17:10;10.80;99.90
21184;DHT22;18176;49.502;11.754;2024-02-16T23:21:33;10.90;99.90
21184;DHT22;18176;49.502;11.754;2024-02-16T23:25:54;10.90;99.90
21184;DHT22;18176;49.502;11.754;2024-02-16T23:30:15;11.00;99.90
21184;DHT22;18176;49.502;11.754;2024-02-16T23:34:36;11.00;99.90
21184;DHT22;18176;49.502;11.754;2024-02-16T23:39:00;11.00;99.90
21184;DHT22;18176;49.502;11.754;2024-02-16T23:43:21;11.00;99.90
21184;DHT22;18176;49.502;11.754;2024-02-16T23:47:42;11.00;99.90
21184;DHT22;18176;49.502;11.754;2024-02-16T23:52:05;11.10;99.90
21184;DHT22;18176;49.502;11.754;2024-02-16T23:56:28;11.10;99.90
